sensor_id;sensor_type;location;lat;lon;timestamp;P1;durP1;ratioP1;P2;durP2;ratioP2
66966;SDS011;53900;51.468;-2.586;2022-10-18T00:00:43;12.82;;;4.45;;
66966;SDS011;53900;51.468;-2.586;2022-10-18T00:03:08;11.43;;;4.57;;
66966;SDS011;53900;51.468;-2.586;2022-10-18T00:05:34;17.63;;;4.10;;
66966;SDS011;53900;51.468;-2.586;2022-10-18T00:07:59;19.90;;;5.05;;
66966;SDS011;53900;51.468;-2.586;2022-10-18T00:10:24;17.65;;;4.93;;
66966;SDS011;53900;51.468;-2.586;2022-10-18T00:12:50;23.25;;;5.40;;
66966;SDS011;53900;51.468;-2.586;2022-10-18T00:15:16;16.83;;;4.93;;
66966;SDS011;53900;51.468;-2.586;2022-10-18T00:17:41;18.95;;;4.72;;
66966;SDS011;53900;51.468;-2.586;2022-10-18T00:20:07;12.18;;;3.85;;
66966;SDS011;53900;51.468;-2.586;2022-10-18T00:22:37;14.60;;;5.18;;
66966;SDS011;53900;51.468;-2.586;2022-10-18T00:25:04;12.02;;;4.97;;
66966;SDS011;53900;51.468;-2.586;2022-10-18T00:27:30;13.75;;;4.07;;
66966;SDS011;53900;51.468;-2.586;2022-10-18T00:29:56;13.05;;;4.13;;
66966;SDS011;53900;51.468;-2.586;2022-10-18T00:32:22;15.20;;;4.55;;
66966;SDS011;53900;51.468;-2.586;2022-10-18T00:34:47;13.48;;;4.28;;
66966;SDS011;53900;51.468;-2.586;2022-10-18T00:37:13;12.38;;;4.20;;
66966;SDS011;53900;51.468;-2.586;2022-10-18T00:39:38;14.02;;;4.07;;
66966;SDS011;53900;51.468;-2.586;2022-10-18T00:42:04;12.95;;;5.00;;
66966;SDS011;53900;51.468;-2.586;2022-10-18T00:46:57;16.13;;;4.55;;
66966;SDS011;53900;51.468;-2.586;2022-10-18T00:54:50;16.52;;;6.10;;
66966;SDS011;53900;51.468;-2.586;2022-10-18T00:57:16;15.50;;;5.63;;
66966;SDS011;53900;51.468;-2.586;2022-10-18T00:59:41;11.38;;;5.65;;
66966;SDS011;53900;51.468;-2.586;2022-10-18T01:02:07;18.55;;;5.65;;
66966;SDS011;53900;51.468;-2.586;2022-10-18T01:04:33;14.38;;;5.18;;
66966;SDS011;53900;51.468;-2.586;2022-10-18T01:15:26;15.85;;;5.07;;
66966;SDS011;53900;51.468;-2.586;2022-10-18T01:20:54;18.42;;;5.40;;
66966;SDS011;53900;51.468;-2.586;2022-10-18T01:28:53;12.90;;;4.50;;
66966;SDS011;53900;51.468;-2.586;2022-10-18T01:31:29;7.95;;;4.63;;
66966;SDS011;53900;51.468;-2.586;2022-10-18T01:33:56;15.05;;;5.53;;
66966;SDS011;53900;51.468;-2.586;2022-10-18T01:36:36;14.35;;;4.25;;
66966;SDS011;53900;51.468;-2.586;2022-10-18T01:39:05;11.15;;;3.80;;
66966;SDS011;53900;51.468;-2.586;2022-10-18T01:41:33;16.13;;;4.28;;
66966;SDS011;53900;51.468;-2.586;2022-10-18T01:44:00;14.60;;;4.00;;
66966;SDS011;53900;51.468;-2.586;2022-10-18T01:46:27;14.77;;;4.32;;
66966;SDS011;53900;51.468;-2.586;2022-10-18T01:48:53;19.30;;;3.83;;
66966;SDS011;53900;51.468;-2.586;2022-10-18T01:51:20;15.32;;;4.72;;
66966;SDS011;53900;51.468;-2.586;2022-10-18T02:05:06;15.60;;;4.10;;
66966;SDS011;53900;51.468;-2.586;2022-10-18T02:07:39;10.15;;;4.10;;
66966;SDS011;53900;51.468;-2.586;2022-10-18T02:12:58;13.77;;;3.92;;
66966;SDS011;53900;51.468;-2.586;2022-10-18T02:15:26;11.07;;;4.30;;
66966;SDS011;53900;51.468;-2.586;2022-10-18T02:18:00;8.35;;;4.07;;
66966;SDS011;53900;51.468;-2.586;2022-10-18T02:20:27;10.27;;;4.05;;
66966;SDS011;53900;51.468;-2.586;2022-10-18T02:22:53;12.23;;;4.13;;
66966;SDS011;53900;51.468;-2.586;2022-10-18T02:25:21;13.95;;;4.03;;
66966;SDS011;53900;51.468;-2.586;2022-10-18T02:27:49;14.52;;;4.13;;
66966;SDS011;53900;51.468;-2.586;2022-10-18T02:30:15;10.70;;;4.43;;
66966;SDS011;53900;51.468;-2.586;2022-10-18T02:32:58;12.82;;;4.68;;
66966;SDS011;53900;51.468;-2.586;2022-10-18T02:35:28;12.75;;;3.80;;
66966;SDS011;53900;51.468;-2.586;2022-10-18T02:37:56;8.40;;;3.58;;
66966;SDS011;53900;51.468;-2.586;2022-10-18T02:40:22;7.43;;;3.55;;
66966;SDS011;53900;51.468;-2.586;2022-10-18T02:42:49;15.30;;;4.22;;
66966;SDS011;53900;51.468;-2.586;2022-10-18T02:45:16;15.05;;;4.75;;
66966;SDS011;53900;51.468;-2.586;2022-10-18T02:47:41;11.25;;;4.75;;
66966;SDS011;53900;51.468;-2.586;2022-10-18T02:50:07;13.50;;;4.03;;
66966;SDS011;53900;51.468;-2.586;2022-10-18T02:52:33;9.93;;;3.88;;
66966;SDS011;53900;51.468;-2.586;2022-10-18T02:54:58;11.85;;;4.20;;
66966;SDS011;53900;51.468;-2.586;2022-10-18T02:57:25;8.23;;;3.67;;
66966;SDS011;53900;51.468;-2.586;2022-10-18T02:59:50;13.10;;;4.20;;
66966;SDS011;53900;51.468;-2.586;2022-10-18T03:02:15;10.60;;;4.35;;
66966;SDS011;53900;51.468;-2.586;2022-10-18T03:04:41;9.95;;;3.42;;
66966;SDS011;53900;51.468;-2.586;2022-10-18T03:07:06;7.28;;;3.53;;
66966;SDS011;53900;51.468;-2.586;2022-10-18T03:09:31;9.65;;;3.78;;
66966;SDS011;53900;51.468;-2.586;2022-10-18T03:11:57;11.48;;;3.63;;
66966;SDS011;53900;51.468;-2.586;2022-10-18T03:14:23;5.78;;;2.88;;
66966;SDS011;53900;51.468;-2.586;2022-10-18T03:16:48;6.28;;;2.60;;
66966;SDS011;53900;51.468;-2.586;2022-10-18T03:19:13;7.90;;;2.80;;
66966;SDS011;53900;51.468;-2.586;2022-10-18T03:21:39;5.72;;;2.80;;
66966;SDS011;53900;51.468;-2.586;2022-10-18T03:24:04;9.07;;;2.97;;
66966;SDS011;53900;51.468;-2.586;2022-10-18T03:26:30;8.38;;;2.88;;
66966;SDS011;53900;51.468;-2.586;2022-10-18T03:28:55;8.32;;;3.00;;
66966;SDS011;53900;51.468;-2.586;2022-10-18T03:31:21;10.60;;;3.30;;
66966;SDS011;53900;51.468;-2.586;2022-10-18T03:33:46;10.23;;;3.03;;
66966;SDS011;53900;51.468;-2.586;2022-10-18T03:36:11;7.38;;;3.05;;
66966;SDS011;53900;51.468;-2.586;2022-10-18T03:38:37;7.88;;;3.10;;
66966;SDS011;53900;51.468;-2.586;2022-10-18T03:41:02;7.18;;;2.83;;
66966;SDS011;53900;51.468;-2.586;2022-10-18T03:43:28;6.97;;;2.67;;
66966;SDS011;53900;51.468;-2.586;2022-10-18T03:45:53;10.20;;;2.80;;
66966;SDS011;53900;51.468;-2.586;2022-10-18T03:48:19;5.30;;;2.83;;
66966;SDS011;53900;51.468;-2.586;2022-10-18T03:50:44;8.40;;;3.08;;
66966;SDS011;53900;51.468;-2.586;2022-10-18T03:53:09;8.80;;;2.47;;
66966;SDS011;53900;51.468;-2.586;2022-10-18T03:55:35;6.13;;;2.85;;
66966;SDS011;53900;51.468;-2.586;2022-10-18T03:58:01;5.35;;;2.45;;
66966;SDS011;53900;51.468;-2.586;2022-10-18T04:00:26;13.65;;;2.88;;
66966;SDS011;53900;51.468;-2.586;2022-10-18T04:02:52;7.05;;;2.83;;
66966;SDS011;53900;51.468;-2.586;2022-10-18T04:05:17;7.32;;;2.72;;
66966;SDS011;53900;51.468;-2.586;2022-10-18T04:07:42;7.45;;;2.95;;
66966;SDS011;53900;51.468;-2.586;2022-10-18T04:10:08;9.00;;;3.30;;
66966;SDS011;53900;51.468;-2.586;2022-10-18T04:12:33;13.60;;;3.17;;
66966;SDS011;53900;51.468;-2.586;2022-10-18T04:14:59;6.63;;;3.40;;
66966;SDS011;53900;51.468;-2.586;2022-10-18T04:17:24;6.90;;;3.17;;
66966;SDS011;53900;51.468;-2.586;2022-10-18T04:19:49;9.82;;;3.08;;
66966;SDS011;53900;51.468;-2.586;2022-10-18T04:22:15;9.88;;;3.35;;
66966;SDS011;53900;51.468;-2.586;2022-10-18T04:24:40;14.32;;;3.28;;
66966;SDS011;53900;51.468;-2.586;2022-10-18T04:27:06;12.25;;;2.03;;
66966;SDS011;53900;51.468;-2.586;2022-10-18T04:29:32;10.30;;;2.58;;
66966;SDS011;53900;51.468;-2.586;2022-10-18T04:31:57;7.25;;;2.22;;
66966;SDS011;53900;51.468;-2.586;2022-10-18T04:34:23;6.00;;;2.40;;
66966;SDS011;53900;51.468;-2.586;2022-10-18T04:36:48;13.80;;;2.28;;
66966;SDS011;53900;51.468;-2.586;2022-10-18T04:39:13;5.63;;;2.35;;
66966;SDS011;53900;51.468;-2.586;2022-10-18T04:41:39;3.70;;;2.45;;
66966;SDS011;53900;51.468;-2.586;2022-10-18T04:44:04;5.05;;;2.55;;
66966;SDS011;53900;51.468;-2.586;2022-10-18T04:46:30;6.18;;;2.53;;
66966;SDS011;53900;51.468;-2.586;2022-10-18T04:48:55;12.40;;;3.42;;
66966;SDS011;53900;51.468;-2.586;2022-10-18T04:51:21;6.05;;;2.33;;
66966;SDS011;53900;51.468;-2.586;2022-10-18T04:53:46;7.20;;;2.40;;
66966;SDS011;53900;51.468;-2.586;2022-10-18T04:56:12;4.20;;;1.83;;
66966;SDS011;53900;51.468;-2.586;2022-10-18T04:58:37;8.32;;;1.70;;
66966;SDS011;53900;51.468;-2.586;2022-10-18T05:01:03;2.45;;;1.80;;
66966;SDS011;53900;51.468;-2.586;2022-10-18T05:03:32;2.00;;;1.55;;
66966;SDS011;53900;51.468;-2.586;2022-10-18T05:05:57;2.40;;;1.63;;
66966;SDS011;53900;51.468;-2.586;2022-10-18T05:08:23;1.60;;;1.50;;
66966;SDS011;53900;51.468;-2.586;2022-10-18T05:10:48;2.97;;;1.80;;
66966;SDS011;53900;51.468;-2.586;2022-10-18T05:13:13;2.40;;;1.70;;
66966;SDS011;53900;51.468;-2.586;2022-10-18T05:15:39;3.08;;;2.10;;
66966;SDS011;53900;51.468;-2.586;2022-10-18T05:18:04;4.10;;;2.10;;
66966;SDS011;53900;51.468;-2.586;2022-10-18T05:20:29;3.65;;;2.30;;
66966;SDS011;53900;51.468;-2.586;2022-10-18T05:22:56;7.20;;;2.05;;
66966;SDS011;53900;51.468;-2.586;2022-10-18T05:25:21;3.60;;;2.30;;
66966;SDS011;53900;51.468;-2.586;2022-10-18T05:27:47;2.97;;;2.40;;
66966;SDS011;53900;51.468;-2.586;2022-10-18T05:30:12;4.35;;;2.40;;
66966;SDS011;53900;51.468;-2.586;2022-10-18T05:32:37;13.05;;;2.47;;
66966;SDS011;53900;51.468;-2.586;2022-10-18T05:35:03;10.52;;;3.30;;
66966;SDS011;53900;51.468;-2.586;2022-10-18T05:37:28;23.13;;;3.05;;
66966;SDS011;53900;51.468;-2.586;2022-10-18T05:39:54;14.35;;;2.85;;
66966;SDS011;53900;51.468;-2.586;2022-10-18T05:42:19;12.25;;;3.20;;
66966;SDS011;53900;51.468;-2.586;2022-10-18T05:44:45;9.75;;;3.05;;
66966;SDS011;53900;51.468;-2.586;2022-10-18T05:47:10;4.05;;;2.65;;
66966;SDS011;53900;51.468;-2.586;2022-10-18T05:49:35;8.70;;;3.67;;
66966;SDS011;53900;51.468;-2.586;2022-10-18T05:52:01;9.30;;;3.47;;
66966;SDS011;53900;51.468;-2.586;2022-10-18T05:54:26;9.13;;;3.75;;
66966;SDS011;53900;51.468;-2.586;2022-10-18T05:56:51;8.52;;;3.17;;
66966;SDS011;53900;51.468;-2.586;2022-10-18T05:59:17;5.78;;;3.13;;
66966;SDS011;53900;51.468;-2.586;2022-10-18T06:01:42;7.00;;;2.97;;
66966;SDS011;53900;51.468;-2.586;2022-10-18T06:04:08;8.05;;;2.70;;
66966;SDS011;53900;51.468;-2.586;2022-10-18T06:06:37;9.30;;;3.10;;
66966;SDS011;53900;51.468;-2.586;2022-10-18T06:09:03;5.85;;;2.88;;
66966;SDS011;53900;51.468;-2.586;2022-10-18T06:11:29;4.63;;;2.90;;
66966;SDS011;53900;51.468;-2.586;2022-10-18T06:13:55;6.38;;;3.38;;
66966;SDS011;53900;51.468;-2.586;2022-10-18T06:16:22;4.30;;;2.60;;
66966;SDS011;53900;51.468;-2.586;2022-10-18T06:18:48;4.38;;;2.53;;
66966;SDS011;53900;51.468;-2.586;2022-10-18T06:21:15;8.25;;;2.13;;
66966;SDS011;53900;51.468;-2.586;2022-10-18T06:23:41;8.68;;;2.70;;
66966;SDS011;53900;51.468;-2.586;2022-10-18T06:26:07;9.20;;;2.38;;
66966;SDS011;53900;51.468;-2.586;2022-10-18T06:28:35;6.18;;;2.10;;
66966;SDS011;53900;51.468;-2.586;2022-10-18T06:31:01;3.05;;;1.95;;
66966;SDS011;53900;51.468;-2.586;2022-10-18T06:33:29;5.43;;;1.80;;
66966;SDS011;53900;51.468;-2.586;2022-10-18T06:35:56;5.70;;;1.90;;
66966;SDS011;53900;51.468;-2.586;2022-10-18T06:38:22;6.63;;;2.08;;
66966;SDS011;53900;51.468;-2.586;2022-10-18T06:40:48;8.80;;;2.58;;
66966;SDS011;53900;51.468;-2.586;2022-10-18T06:43:13;4.40;;;2.78;;
66966;SDS011;53900;51.468;-2.586;2022-10-18T06:45:39;8.52;;;3.03;;
66966;SDS011;53900;51.468;-2.586;2022-10-18T06:48:04;7.18;;;2.90;;
66966;SDS011;53900;51.468;-2.586;2022-10-18T06:50:30;8.77;;;3.72;;
66966;SDS011;53900;51.468;-2.586;2022-10-18T06:52:55;8.52;;;3.58;;
66966;SDS011;53900;51.468;-2.586;2022-10-18T06:55:20;4.60;;;3.00;;
66966;SDS011;53900;51.468;-2.586;2022-10-18T06:57:46;8.05;;;3.42;;
66966;SDS011;53900;51.468;-2.586;2022-10-18T07:00:11;4.63;;;2.70;;
66966;SDS011;53900;51.468;-2.586;2022-10-18T07:02:38;3.80;;;2.25;;
66966;SDS011;53900;51.468;-2.586;2022-10-18T07:05:05;5.40;;;3.05;;
66966;SDS011;53900;51.468;-2.586;2022-10-18T07:07:31;4.22;;;2.58;;
66966;SDS011;53900;51.468;-2.586;2022-10-18T07:09:57;2.92;;;2.13;;
66966;SDS011;53900;51.468;-2.586;2022-10-18T07:12:22;2.50;;;2.15;;
66966;SDS011;53900;51.468;-2.586;2022-10-18T07:14:48;2.70;;;2.00;;
66966;SDS011;53900;51.468;-2.586;2022-10-18T07:17:13;9.27;;;3.08;;
66966;SDS011;53900;51.468;-2.586;2022-10-18T07:19:38;8.38;;;3.30;;
66966;SDS011;53900;51.468;-2.586;2022-10-18T07:22:04;10.95;;;3.20;;
66966;SDS011;53900;51.468;-2.586;2022-10-18T07:24:29;15.23;;;3.80;;
66966;SDS011;53900;51.468;-2.586;2022-10-18T07:26:54;5.68;;;2.75;;
66966;SDS011;53900;51.468;-2.586;2022-10-18T07:29:20;10.43;;;3.13;;
66966;SDS011;53900;51.468;-2.586;2022-10-18T07:31:45;9.32;;;3.13;;
66966;SDS011;53900;51.468;-2.586;2022-10-18T07:34:11;8.30;;;3.50;;
66966;SDS011;53900;51.468;-2.586;2022-10-18T07:36:37;8.27;;;4.28;;
66966;SDS011;53900;51.468;-2.586;2022-10-18T07:39:02;9.10;;;3.45;;
66966;SDS011;53900;51.468;-2.586;2022-10-18T07:41:28;7.82;;;3.53;;
66966;SDS011;53900;51.468;-2.586;2022-10-18T07:43:55;14.80;;;3.63;;
66966;SDS011;53900;51.468;-2.586;2022-10-18T07:46:21;18.40;;;3.38;;
66966;SDS011;53900;51.468;-2.586;2022-10-18T07:48:46;6.13;;;3.10;;
66966;SDS011;53900;51.468;-2.586;2022-10-18T07:51:12;13.57;;;3.13;;
66966;SDS011;53900;51.468;-2.586;2022-10-18T07:53:38;17.10;;;3.50;;
66966;SDS011;53900;51.468;-2.586;2022-10-18T07:56:04;8.35;;;3.35;;
66966;SDS011;53900;51.468;-2.586;2022-10-18T07:58:31;13.73;;;3.25;;
66966;SDS011;53900;51.468;-2.586;2022-10-18T08:01:01;8.88;;;3.70;;
66966;SDS011;53900;51.468;-2.586;2022-10-18T08:03:27;10.40;;;3.00;;
66966;SDS011;53900;51.468;-2.586;2022-10-18T08:05:53;5.60;;;3.13;;
66966;SDS011;53900;51.468;-2.586;2022-10-18T08:08:20;5.75;;;3.33;;
66966;SDS011;53900;51.468;-2.586;2022-10-18T08:10:46;7.65;;;3.20;;
66966;SDS011;53900;51.468;-2.586;2022-10-18T08:13:11;7.57;;;3.22;;
66966;SDS011;53900;51.468;-2.586;2022-10-18T08:15:37;9.60;;;3.17;;
66966;SDS011;53900;51.468;-2.586;2022-10-18T08:18:02;7.50;;;3.40;;
66966;SDS011;53900;51.468;-2.586;2022-10-18T08:20:27;10.00;;;3.97;;
66966;SDS011;53900;51.468;-2.586;2022-10-18T08:22:54;8.98;;;3.90;;
66966;SDS011;53900;51.468;-2.586;2022-10-18T08:25:19;6.45;;;4.00;;
66966;SDS011;53900;51.468;-2.586;2022-10-18T08:27:45;13.75;;;3.60;;
66966;SDS011;53900;51.468;-2.586;2022-10-18T08:30:10;13.02;;;3.80;;
66966;SDS011;53900;51.468;-2.586;2022-10-18T08:32:36;7.65;;;4.07;;
66966;SDS011;53900;51.468;-2.586;2022-10-18T08:35:01;9.35;;;3.75;;
66966;SDS011;53900;51.468;-2.586;2022-10-18T08:37:27;5.20;;;3.70;;
66966;SDS011;53900;51.468;-2.586;2022-10-18T08:39:52;9.90;;;2.97;;
66966;SDS011;53900;51.468;-2.586;2022-10-18T08:44:46;5.85;;;2.25;;
66966;SDS011;53900;51.468;-2.586;2022-10-18T08:47:13;6.38;;;2.83;;
66966;SDS011;53900;51.468;-2.586;2022-10-18T08:49:45;9.65;;;2.65;;
66966;SDS011;53900;51.468;-2.586;2022-10-18T08:52:29;4.90;;;3.08;;
66966;SDS011;53900;51.468;-2.586;2022-10-18T08:54:58;5.15;;;3.15;;
66966;SDS011;53900;51.468;-2.586;2022-10-18T08:57:26;11.48;;;3.60;;
66966;SDS011;53900;51.468;-2.586;2022-10-18T08:59:52;6.13;;;2.97;;
66966;SDS011;53900;51.468;-2.586;2022-10-18T09:03:21;4.35;;;2.33;;
66966;SDS011;53900;51.468;-2.586;2022-10-18T09:05:30;6.38;;;2.88;;
66966;SDS011;53900;51.468;-2.586;2022-10-18T09:14:01;7.90;;;3.05;;
66966;SDS011;53900;51.468;-2.586;2022-10-18T09:22:14;3.42;;;2.50;;
66966;SDS011;53900;51.468;-2.586;2022-10-18T09:27:15;9.55;;;2.67;;
66966;SDS011;53900;51.468;-2.586;2022-10-18T09:29:58;6.72;;;2.90;;
66966;SDS011;53900;51.468;-2.586;2022-10-18T09:32:33;6.28;;;2.90;;
66966;SDS011;53900;51.468;-2.586;2022-10-18T09:37:31;5.57;;;3.08;;
66966;SDS011;53900;51.468;-2.586;2022-10-18T09:42:38;7.07;;;4.00;;
66966;SDS011;53900;51.468;-2.586;2022-10-18T09:47:43;7.15;;;3.60;;
66966;SDS011;53900;51.468;-2.586;2022-10-18T09:50:20;10.07;;;3.78;;
66966;SDS011;53900;51.468;-2.586;2022-10-18T09:55:50;13.85;;;3.92;;
66966;SDS011;53900;51.468;-2.586;2022-10-18T09:58:20;8.48;;;3.70;;
66966;SDS011;53900;51.468;-2.586;2022-10-18T10:00:48;10.82;;;3.78;;
66966;SDS011;53900;51.468;-2.586;2022-10-18T10:03:15;9.35;;;3.75;;
66966;SDS011;53900;51.468;-2.586;2022-10-18T10:05:41;7.20;;;3.58;;
66966;SDS011;53900;51.468;-2.586;2022-10-18T10:08:07;5.57;;;3.75;;
66966;SDS011;53900;51.468;-2.586;2022-10-18T10:10:32;6.63;;;3.70;;
66966;SDS011;53900;51.468;-2.586;2022-10-18T10:15:29;6.80;;;4.00;;
66966;SDS011;53900;51.468;-2.586;2022-10-18T10:18:02;7.93;;;3.60;;
66966;SDS011;53900;51.468;-2.586;2022-10-18T10:21:05;7.67;;;3.70;;
66966;SDS011;53900;51.468;-2.586;2022-10-18T10:23:34;8.00;;;3.83;;
66966;SDS011;53900;51.468;-2.586;2022-10-18T10:26:23;6.88;;;3.63;;
66966;SDS011;53900;51.468;-2.586;2022-10-18T10:28:48;7.63;;;3.80;;
66966;SDS011;53900;51.468;-2.586;2022-10-18T10:31:18;7.63;;;3.58;;
66966;SDS011;53900;51.468;-2.586;2022-10-18T10:34:04;7.30;;;3.47;;
66966;SDS011;53900;51.468;-2.586;2022-10-18T10:36:49;7.40;;;4.13;;
66966;SDS011;53900;51.468;-2.586;2022-10-18T10:39:16;8.40;;;4.70;;
66966;SDS011;53900;51.468;-2.586;2022-10-18T10:44:19;7.75;;;3.42;;
66966;SDS011;53900;51.468;-2.586;2022-10-18T10:46:47;10.15;;;3.08;;
66966;SDS011;53900;51.468;-2.586;2022-10-18T10:51:52;6.15;;;3.03;;
66966;SDS011;53900;51.468;-2.586;2022-10-18T10:54:22;11.35;;;3.55;;
66966;SDS011;53900;51.468;-2.586;2022-10-18T10:57:05;7.05;;;3.30;;
66966;SDS011;53900;51.468;-2.586;2022-10-18T10:59:44;12.27;;;3.10;;
66966;SDS011;53900;51.468;-2.586;2022-10-18T11:02:18;12.00;;;2.90;;
66966;SDS011;53900;51.468;-2.586;2022-10-18T11:04:54;4.40;;;2.60;;
66966;SDS011;53900;51.468;-2.586;2022-10-18T11:07:29;4.93;;;2.53;;
66966;SDS011;53900;51.468;-2.586;2022-10-18T11:10:02;8.73;;;2.70;;
66966;SDS011;53900;51.468;-2.586;2022-10-18T11:12:31;8.35;;;2.60;;
66966;SDS011;53900;51.468;-2.586;2022-10-18T11:15:02;8.98;;;2.22;;
66966;SDS011;53900;51.468;-2.586;2022-10-18T11:18:03;8.65;;;2.10;;
66966;SDS011;53900;51.468;-2.586;2022-10-18T11:20:31;10.32;;;2.33;;
66966;SDS011;53900;51.468;-2.586;2022-10-18T11:23:20;5.55;;;1.70;;
66966;SDS011;53900;51.468;-2.586;2022-10-18T11:39:02;6.43;;;1.35;;
66966;SDS011;53900;51.468;-2.586;2022-10-18T11:41:42;6.80;;;1.48;;
66966;SDS011;53900;51.468;-2.586;2022-10-18T11:44:35;9.05;;;1.60;;
66966;SDS011;53900;51.468;-2.586;2022-10-18T11:47:25;6.68;;;1.58;;
66966;SDS011;53900;51.468;-2.586;2022-10-18T11:58:36;3.08;;;1.10;;
66966;SDS011;53900;51.468;-2.586;2022-10-18T12:03:55;6.72;;;1.70;;
66966;SDS011;53900;51.468;-2.586;2022-10-18T12:06:28;11.85;;;1.80;;
66966;SDS011;53900;51.468;-2.586;2022-10-18T12:09:01;6.55;;;1.52;;
66966;SDS011;53900;51.468;-2.586;2022-10-18T12:11:46;3.53;;;1.10;;
66966;SDS011;53900;51.468;-2.586;2022-10-18T12:16:46;9.02;;;2.08;;
66966;SDS011;53900;51.468;-2.586;2022-10-18T12:19:16;5.20;;;1.73;;
66966;SDS011;53900;51.468;-2.586;2022-10-18T12:21:44;9.48;;;1.50;;
66966;SDS011;53900;51.468;-2.586;2022-10-18T12:24:11;10.02;;;1.90;;
66966;SDS011;53900;51.468;-2.586;2022-10-18T12:26:40;7.22;;;1.65;;
66966;SDS011;53900;51.468;-2.586;2022-10-18T12:29:15;4.60;;;1.80;;
66966;SDS011;53900;51.468;-2.586;2022-10-18T12:32:31;5.63;;;1.60;;
66966;SDS011;53900;51.468;-2.586;2022-10-18T12:35:00;5.45;;;1.88;;
66966;SDS011;53900;51.468;-2.586;2022-10-18T12:43:23;4.93;;;2.10;;
66966;SDS011;53900;51.468;-2.586;2022-10-18T12:46:00;9.18;;;2.53;;
66966;SDS011;53900;51.468;-2.586;2022-10-18T12:50:57;9.95;;;3.13;;
66966;SDS011;53900;51.468;-2.586;2022-10-18T12:53:24;7.63;;;2.03;;
66966;SDS011;53900;51.468;-2.586;2022-10-18T12:55:51;8.10;;;1.95;;
66966;SDS011;53900;51.468;-2.586;2022-10-18T13:00:54;4.43;;;1.33;;
66966;SDS011;53900;51.468;-2.586;2022-10-18T13:16:43;6.53;;;1.42;;
66966;SDS011;53900;51.468;-2.586;2022-10-18T13:19:09;4.60;;;1.50;;
66966;SDS011;53900;51.468;-2.586;2022-10-18T13:21:51;5.05;;;1.55;;
66966;SDS011;53900;51.468;-2.586;2022-10-18T13:24:44;5.70;;;1.52;;
66966;SDS011;53900;51.468;-2.586;2022-10-18T13:30:10;10.25;;;1.67;;
66966;SDS011;53900;51.468;-2.586;2022-10-18T13:35:42;12.02;;;2.58;;
66966;SDS011;53900;51.468;-2.586;2022-10-18T13:38:36;8.48;;;1.75;;
66966;SDS011;53900;51.468;-2.586;2022-10-18T13:44:30;4.85;;;1.20;;
66966;SDS011;53900;51.468;-2.586;2022-10-18T14:08:32;7.03;;;1.40;;
66966;SDS011;53900;51.468;-2.586;2022-10-18T14:11:17;12.05;;;1.38;;
66966;SDS011;53900;51.468;-2.586;2022-10-18T14:14:15;7.28;;;2.05;;
66966;SDS011;53900;51.468;-2.586;2022-10-18T14:19:38;10.07;;;1.52;;
66966;SDS011;53900;51.468;-2.586;2022-10-18T14:22:09;4.78;;;1.08;;
66966;SDS011;53900;51.468;-2.586;2022-10-18T14:24:39;4.70;;;1.25;;
66966;SDS011;53900;51.468;-2.586;2022-10-18T14:30:08;5.20;;;1.17;;
66966;SDS011;53900;51.468;-2.586;2022-10-18T14:32:44;4.93;;;1.50;;
66966;SDS011;53900;51.468;-2.586;2022-10-18T14:35:20;5.15;;;1.00;;
66966;SDS011;53900;51.468;-2.586;2022-10-18T14:37:56;3.42;;;1.02;;
66966;SDS011;53900;51.468;-2.586;2022-10-18T14:40:25;5.55;;;1.25;;
66966;SDS011;53900;51.468;-2.586;2022-10-18T14:43:02;4.50;;;1.10;;
66966;SDS011;53900;51.468;-2.586;2022-10-18T14:45:29;2.85;;;0.95;;
66966;SDS011;53900;51.468;-2.586;2022-10-18T14:48:03;4.47;;;1.10;;
66966;SDS011;53900;51.468;-2.586;2022-10-18T14:50:55;2.40;;;0.90;;
66966;SDS011;53900;51.468;-2.586;2022-10-18T14:53:24;6.63;;;1.20;;
66966;SDS011;53900;51.468;-2.586;2022-10-18T14:55:55;5.00;;;1.35;;
66966;SDS011;53900;51.468;-2.586;2022-10-18T14:58:28;4.68;;;1.02;;
66966;SDS011;53900;51.468;-2.586;2022-10-18T15:00:54;6.68;;;1.20;;
66966;SDS011;53900;51.468;-2.586;2022-10-18T15:03:20;3.63;;;0.90;;
66966;SDS011;53900;51.468;-2.586;2022-10-18T15:05:59;5.90;;;1.10;;
66966;SDS011;53900;51.468;-2.586;2022-10-18T15:08:31;3.65;;;1.00;;
66966;SDS011;53900;51.468;-2.586;2022-10-18T15:11:01;4.68;;;0.90;;
66966;SDS011;53900;51.468;-2.586;2022-10-18T15:13:26;3.75;;;1.23;;
66966;SDS011;53900;51.468;-2.586;2022-10-18T15:15:52;7.47;;;1.15;;
66966;SDS011;53900;51.468;-2.586;2022-10-18T15:18:25;5.05;;;1.00;;
66966;SDS011;53900;51.468;-2.586;2022-10-18T15:23:48;5.95;;;1.25;;
66966;SDS011;53900;51.468;-2.586;2022-10-18T15:26:18;4.63;;;1.15;;
66966;SDS011;53900;51.468;-2.586;2022-10-18T15:28:46;3.95;;;1.20;;
66966;SDS011;53900;51.468;-2.586;2022-10-18T15:31:21;2.47;;;1.02;;
66966;SDS011;53900;51.468;-2.586;2022-10-18T15:33:51;5.45;;;1.33;;
66966;SDS011;53900;51.468;-2.586;2022-10-18T15:36:28;9.15;;;1.90;;
66966;SDS011;53900;51.468;-2.586;2022-10-18T15:39:05;4.95;;;1.25;;
66966;SDS011;53900;51.468;-2.586;2022-10-18T15:41:43;6.45;;;1.63;;
66966;SDS011;53900;51.468;-2.586;2022-10-18T15:44:20;6.03;;;1.38;;
66966;SDS011;53900;51.468;-2.586;2022-10-18T15:46:46;4.10;;;1.13;;
66966;SDS011;53900;51.468;-2.586;2022-10-18T15:54:34;5.15;;;1.20;;
66966;SDS011;53900;51.468;-2.586;2022-10-18T15:57:05;8.85;;;2.20;;
66966;SDS011;53900;51.468;-2.586;2022-10-18T15:59:32;5.25;;;1.70;;
66966;SDS011;53900;51.468;-2.586;2022-10-18T16:01:57;12.95;;;1.73;;
66966;SDS011;53900;51.468;-2.586;2022-10-18T16:06:55;3.88;;;1.70;;
66966;SDS011;53900;51.468;-2.586;2022-10-18T16:09:22;7.93;;;1.92;;
66966;SDS011;53900;51.468;-2.586;2022-10-18T16:11:50;8.15;;;2.33;;
66966;SDS011;53900;51.468;-2.586;2022-10-18T16:14:19;9.02;;;2.03;;
66966;SDS011;53900;51.468;-2.586;2022-10-18T16:19:14;12.18;;;1.80;;
66966;SDS011;53900;51.468;-2.586;2022-10-18T16:21:42;9.20;;;2.13;;
66966;SDS011;53900;51.468;-2.586;2022-10-18T16:24:08;6.35;;;2.20;;
66966;SDS011;53900;51.468;-2.586;2022-10-18T16:26:34;10.90;;;2.33;;
66966;SDS011;53900;51.468;-2.586;2022-10-18T16:29:00;8.07;;;2.17;;
66966;SDS011;53900;51.468;-2.586;2022-10-18T16:31:27;12.57;;;2.70;;
66966;SDS011;53900;51.468;-2.586;2022-10-18T16:33:54;7.28;;;1.98;;
66966;SDS011;53900;51.468;-2.586;2022-10-18T16:36:21;7.22;;;1.90;;
66966;SDS011;53900;51.468;-2.586;2022-10-18T16:38:48;5.75;;;1.73;;
66966;SDS011;53900;51.468;-2.586;2022-10-18T16:41:14;12.95;;;2.22;;
66966;SDS011;53900;51.468;-2.586;2022-10-18T16:43:43;6.57;;;2.08;;
66966;SDS011;53900;51.468;-2.586;2022-10-18T16:46:17;4.97;;;2.08;;
66966;SDS011;53900;51.468;-2.586;2022-10-18T16:48:44;4.75;;;1.75;;
66966;SDS011;53900;51.468;-2.586;2022-10-18T16:51:10;4.95;;;1.80;;
66966;SDS011;53900;51.468;-2.586;2022-10-18T16:53:35;4.63;;;1.90;;
66966;SDS011;53900;51.468;-2.586;2022-10-18T16:56:01;8.98;;;2.15;;
66966;SDS011;53900;51.468;-2.586;2022-10-18T16:58:28;9.52;;;2.17;;
66966;SDS011;53900;51.468;-2.586;2022-10-18T17:00:54;5.30;;;2.33;;
66966;SDS011;53900;51.468;-2.586;2022-10-18T17:03:20;7.60;;;2.75;;
66966;SDS011;53900;51.468;-2.586;2022-10-18T17:05:46;8.50;;;1.98;;
66966;SDS011;53900;51.468;-2.586;2022-10-18T17:08:22;6.43;;;1.90;;
66966;SDS011;53900;51.468;-2.586;2022-10-18T17:10:49;6.63;;;2.13;;
66966;SDS011;53900;51.468;-2.586;2022-10-18T17:13:19;9.73;;;2.38;;
66966;SDS011;53900;51.468;-2.586;2022-10-18T17:15:45;6.05;;;2.30;;
66966;SDS011;53900;51.468;-2.586;2022-10-18T17:18:12;6.93;;;2.30;;
66966;SDS011;53900;51.468;-2.586;2022-10-18T17:20:50;6.72;;;2.05;;
66966;SDS011;53900;51.468;-2.586;2022-10-18T17:23:15;9.82;;;2.25;;
66966;SDS011;53900;51.468;-2.586;2022-10-18T17:25:41;17.10;;;2.65;;
66966;SDS011;53900;51.468;-2.586;2022-10-18T17:28:11;10.57;;;2.92;;
66966;SDS011;53900;51.468;-2.586;2022-10-18T17:30:38;9.57;;;2.42;;
66966;SDS011;53900;51.468;-2.586;2022-10-18T17:33:05;9.02;;;2.13;;
66966;SDS011;53900;51.468;-2.586;2022-10-18T17:35:30;6.47;;;2.00;;